sensor_id;sensor_type;location;lat;lon;timestamp;P1;P2;P0
84970;PMS5003;75278;51.926;4.562;2024-01-30T00:00:48;20;20;
84970;PMS5003;75278;51.926;4.562;2024-01-30T00:02:48;21;21;
84970;PMS5003;75278;51.926;4.562;2024-01-30T00:04:48;27;27;
84970;PMS5003;75278;51.926;4.562;2024-01-30T00:06:48;25;25;
84970;PMS5003;75278;51.926;4.562;2024-01-30T00:08:48;22;22;
84970;PMS5003;75278;51.926;4.562;2024-01-30T00:10:48;19;19;
84970;PMS5003;75278;51.926;4.562;2024-01-30T00:12:48;21;21;
84970;PMS5003;75278;51.926;4.562;2024-01-30T00:14:48;24;21;
84970;PMS5003;75278;51.926;4.562;2024-01-30T00:16:48;21;21;
84970;PMS5003;75278;51.926;4.562;2024-01-30T00:18:48;26;23;
84970;PMS5003;75278;51.926;4.562;2024-01-30T00:20:48;21;21;
84970;PMS5003;75278;51.926;4.562;2024-01-30T00:22:48;20;20;
84970;PMS5003;75278;51.926;4.562;2024-01-30T00:24:48;20;19;
84970;PMS5003;75278;51.926;4.562;2024-01-30T00:26:48;21;21;
84970;PMS5003;75278;51.926;4.562;2024-01-30T00:28:48;21;20;
84970;PMS5003;75278;51.926;4.562;2024-01-30T00:30:48;19;19;
84970;PMS5003;75278;51.926;4.562;2024-01-30T00:32:48;22;21;
84970;PMS5003;75278;51.926;4.562;2024-01-30T00:34:48;18;18;
84970;PMS5003;75278;51.926;4.562;2024-01-30T00:36:48;21;20;
84970;PMS5003;75278;51.926;4.562;2024-01-30T00:38:48;25;24;
84970;PMS5003;75278;51.926;4.562;2024-01-30T00:40:48;20;20;
84970;PMS5003;75278;51.926;4.562;2024-01-30T00:42:48;17;17;
84970;PMS5003;75278;51.926;4.562;2024-01-30T00:44:48;18;18;
84970;PMS5003;75278;51.926;4.562;2024-01-30T00:46:48;21;21;
84970;PMS5003;75278;51.926;4.562;2024-01-30T00:48:48;22;21;
84970;PMS5003;75278;51.926;4.562;2024-01-30T00:50:48;22;20;
84970;PMS5003;75278;51.926;4.562;2024-01-30T00:52:48;16;15;
84970;PMS5003;75278;51.926;4.562;2024-01-30T00:54:48;20;20;
84970;PMS5003;75278;51.926;4.562;2024-01-30T00:56:48;23;20;
84970;PMS5003;75278;51.926;4.562;2024-01-30T00:58:48;16;15;
84970;PMS5003;75278;51.926;4.562;2024-01-30T01:00:48;19;18;
84970;PMS5003;75278;51.926;4.562;2024-01-30T01:02:48;14;14;
84970;PMS5003;75278;51.926;4.562;2024-01-30T01:04:48;18;18;
84970;PMS5003;75278;51.926;4.562;2024-01-30T01:06:48;17;17;
84970;PMS5003;75278;51.926;4.562;2024-01-30T01:08:48;20;17;
84970;PMS5003;75278;51.926;4.562;2024-01-30T01:09:20;37;37;
84970;PMS5003;75278;51.926;4.562;2024-01-30T01:10:35;17;17;
84970;PMS5003;75278;51.926;4.562;2024-01-30T01:12:35;19;18;
84970;PMS5003;75278;51.926;4.562;2024-01-30T01:14:35;15;15;
84970;PMS5003;75278;51.926;4.562;2024-01-30T01:16:35;22;22;
84970;PMS5003;75278;51.926;4.562;2024-01-30T01:18:35;18;17;
84970;PMS5003;75278;51.926;4.562;2024-01-30T01:20:35;19;18;
84970;PMS5003;75278;51.926;4.562;2024-01-30T01:22:35;18;18;
84970;PMS5003;75278;51.926;4.562;2024-01-30T01:24:35;16;16;
84970;PMS5003;75278;51.926;4.562;2024-01-30T01:26:35;18;18;
84970;PMS5003;75278;51.926;4.562;2024-01-30T01:28:35;19;19;
84970;PMS5003;75278;51.926;4.562;2024-01-30T01:30:35;16;16;
84970;PMS5003;75278;51.926;4.562;2024-01-30T01:32:35;17;17;
84970;PMS5003;75278;51.926;4.562;2024-01-30T01:34:35;15;15;
84970;PMS5003;75278;51.926;4.562;2024-01-30T01:36:35;22;22;
84970;PMS5003;75278;51.926;4.562;2024-01-30T01:38:35;22;22;
84970;PMS5003;75278;51.926;4.562;2024-01-30T01:40:35;18;18;
84970;PMS5003;75278;51.926;4.562;2024-01-30T01:42:35;18;18;
84970;PMS5003;75278;51.926;4.562;2024-01-30T01:44:35;17;16;
84970;PMS5003;75278;51.926;4.562;2024-01-30T01:46:35;18;18;
84970;PMS5003;75278;51.926;4.562;2024-01-30T01:48:35;20;20;
84970;PMS5003;75278;51.926;4.562;2024-01-30T01:50:35;17;16;
84970;PMS5003;75278;51.926;4.562;2024-01-30T01:52:35;21;21;
84970;PMS5003;75278;51.926;4.562;2024-01-30T01:54:35;18;17;
84970;PMS5003;75278;51.926;4.562;2024-01-30T01:56:35;22;22;
84970;PMS5003;75278;51.926;4.562;2024-01-30T01:58:35;17;17;
84970;PMS5003;75278;51.926;4.562;2024-01-30T02:00:36;17;17;
84970;PMS5003;75278;51.926;4.562;2024-01-30T02:02:35;15;14;
84970;PMS5003;75278;51.926;4.562;2024-01-30T02:04:35;21;20;
84970;PMS5003;75278;51.926;4.562;2024-01-30T02:06:35;16;16;
84970;PMS5003;75278;51.926;4.562;2024-01-30T02:08:37;17;16;
84970;PMS5003;75278;51.926;4.562;2024-01-30T02:10:35;20;19;
84970;PMS5003;75278;51.926;4.562;2024-01-30T02:12:35;20;18;
84970;PMS5003;75278;51.926;4.562;2024-01-30T02:14:43;15;15;
84970;PMS5003;75278;51.926;4.562;2024-01-30T02:16:35;15;15;
84970;PMS5003;75278;51.926;4.562;2024-01-30T02:18:35;12;12;
84970;PMS5003;75278;51.926;4.562;2024-01-30T02:20:35;16;16;
84970;PMS5003;75278;51.926;4.562;2024-01-30T02:22:35;15;15;
84970;PMS5003;75278;51.926;4.562;2024-01-30T02:24:35;14;14;
84970;PMS5003;75278;51.926;4.562;2024-01-30T02:26:35;25;23;
84970;PMS5003;75278;51.926;4.562;2024-01-30T02:28:35;15;15;
84970;PMS5003;75278;51.926;4.562;2024-01-30T02:30:35;17;17;
84970;PMS5003;75278;51.926;4.562;2024-01-30T02:32:35;13;13;
84970;PMS5003;75278;51.926;4.562;2024-01-30T02:34:35;17;17;
84970;PMS5003;75278;51.926;4.562;2024-01-30T02:36:35;14;14;
84970;PMS5003;75278;51.926;4.562;2024-01-30T02:38:35;20;19;
84970;PMS5003;75278;51.926;4.562;2024-01-30T02:40:35;16;16;
84970;PMS5003;75278;51.926;4.562;2024-01-30T02:42:35;18;18;
84970;PMS5003;75278;51.926;4.562;2024-01-30T02:44:35;12;12;
84970;PMS5003;75278;51.926;4.562;2024-01-30T02:46:35;15;15;
84970;PMS5003;75278;51.926;4.562;2024-01-30T02:48:35;14;14;
84970;PMS5003;75278;51.926;4.562;2024-01-30T02:50:35;17;17;
84970;PMS5003;75278;51.926;4.562;2024-01-30T02:52:35;18;17;
84970;PMS5003;75278;51.926;4.562;2024-01-30T02:54:35;17;16;
84970;PMS5003;75278;51.926;4.562;2024-01-30T02:56:35;15;15;
84970;PMS5003;75278;51.926;4.562;2024-01-30T02:58:35;16;16;
84970;PMS5003;75278;51.926;4.562;2024-01-30T03:00:35;12;12;
84970;PMS5003;75278;51.926;4.562;2024-01-30T03:02:35;10;10;
84970;PMS5003;75278;51.926;4.562;2024-01-30T03:04:35;15;15;
84970;PMS5003;75278;51.926;4.562;2024-01-30T03:06:35;20;18;
84970;PMS5003;75278;51.926;4.562;2024-01-30T03:08:35;20;19;
84970;PMS5003;75278;51.926;4.562;2024-01-30T03:10:35;15;15;
84970;PMS5003;75278;51.926;4.562;2024-01-30T03:12:35;13;12;
84970;PMS5003;75278;51.926;4.562;2024-01-30T03:14:35;14;14;
84970;PMS5003;75278;51.926;4.562;2024-01-30T03:16:35;19;19;
84970;PMS5003;75278;51.926;4.562;2024-01-30T03:18:35;15;15;
84970;PMS5003;75278;51.926;4.562;2024-01-30T03:20:35;16;16;
84970;PMS5003;75278;51.926;4.562;2024-01-30T03:22:35;18;18;
84970;PMS5003;75278;51.926;4.562;2024-01-30T03:24:35;14;14;
84970;PMS5003;75278;51.926;4.562;2024-01-30T03:26:35;17;17;
84970;PMS5003;75278;51.926;4.562;2024-01-30T03:28:35;20;19;
84970;PMS5003;75278;51.926;4.562;2024-01-30T03:30:35;20;20;
84970;PMS5003;75278;51.926;4.562;2024-01-30T03:32:35;17;16;
84970;PMS5003;75278;51.926;4.562;2024-01-30T03:34:35;21;21;
84970;PMS5003;75278;51.926;4.562;2024-01-30T03:36:35;15;15;
84970;PMS5003;75278;51.926;4.562;2024-01-30T03:38:35;19;18;
84970;PMS5003;75278;51.926;4.562;2024-01-30T03:40:35;18;18;
84970;PMS5003;75278;51.926;4.562;2024-01-30T03:42:35;14;14;
84970;PMS5003;75278;51.926;4.562;2024-01-30T03:44:35;20;20;
84970;PMS5003;75278;51.926;4.562;2024-01-30T03:46:35;14;14;
84970;PMS5003;75278;51.926;4.562;2024-01-30T03:48:35;17;15;
84970;PMS5003;75278;51.926;4.562;2024-01-30T03:50:35;12;12;
84970;PMS5003;75278;51.926;4.562;2024-01-30T03:52:35;19;18;
84970;PMS5003;75278;51.926;4.562;2024-01-30T03:54:35;15;15;
84970;PMS5003;75278;51.926;4.562;2024-01-30T03:56:35;16;15;
84970;PMS5003;75278;51.926;4.562;2024-01-30T03:58:35;14;13;
84970;PMS5003;75278;51.926;4.562;2024-01-30T04:00:35;14;14;
84970;PMS5003;75278;51.926;4.562;2024-01-30T04:02:35;13;13;
84970;PMS5003;75278;51.926;4.562;2024-01-30T04:04:35;15;15;
84970;PMS5003;75278;51.926;4.562;2024-01-30T04:06:35;20;18;
84970;PMS5003;75278;51.926;4.562;2024-01-30T04:08:35;13;13;
84970;PMS5003;75278;51.926;4.562;2024-01-30T04:10:35;14;14;
84970;PMS5003;75278;51.926;4.562;2024-01-30T04:12:35;17;16;
84970;PMS5003;75278;51.926;4.562;2024-01-30T04:14:35;14;14;
84970;PMS5003;75278;51.926;4.562;2024-01-30T04:16:35;16;16;
84970;PMS5003;75278;51.926;4.562;2024-01-30T04:18:35;15;15;
84970;PMS5003;75278;51.926;4.562;2024-01-30T04:20:35;15;15;
84970;PMS5003;75278;51.926;4.562;2024-01-30T04:22:35;17;16;
84970;PMS5003;75278;51.926;4.562;2024-01-30T04:24:35;13;12;
84970;PMS5003;75278;51.926;4.562;2024-01-30T04:25:11;25;25;
84970;PMS5003;75278;51.926;4.562;2024-01-30T04:25:59;21;20;
84970;PMS5003;75278;51.926;4.562;2024-01-30T04:27:59;19;19;
84970;PMS5003;75278;51.926;4.562;2024-01-30T04:29:59;18;17;
84970;PMS5003;75278;51.926;4.562;2024-01-30T04:31:59;17;17;
84970;PMS5003;75278;51.926;4.562;2024-01-30T04:33:59;16;16;
84970;PMS5003;75278;51.926;4.562;2024-01-30T04:35:59;18;18;
84970;PMS5003;75278;51.926;4.562;2024-01-30T04:37:59;15;15;
84970;PMS5003;75278;51.926;4.562;2024-01-30T04:39:59;18;17;
84970;PMS5003;75278;51.926;4.562;2024-01-30T04:41:59;18;18;
84970;PMS5003;75278;51.926;4.562;2024-01-30T04:43:59;16;16;
84970;PMS5003;75278;51.926;4.562;2024-01-30T04:45:59;17;17;
84970;PMS5003;75278;51.926;4.562;2024-01-30T04:47:59;16;16;
84970;PMS5003;75278;51.926;4.562;2024-01-30T04:49:59;16;16;
84970;PMS5003;75278;51.926;4.562;2024-01-30T04:51:59;17;17;
84970;PMS5003;75278;51.926;4.562;2024-01-30T04:53:59;16;16;
84970;PMS5003;75278;51.926;4.562;2024-01-30T04:55:59;17;17;
84970;PMS5003;75278;51.926;4.562;2024-01-30T04:57:59;9;9;
84970;PMS5003;75278;51.926;4.562;2024-01-30T04:59:59;17;17;
84970;PMS5003;75278;51.926;4.562;2024-01-30T05:01:59;15;14;
84970;PMS5003;75278;51.926;4.562;2024-01-30T05:03:59;14;14;
84970;PMS5003;75278;51.926;4.562;2024-01-30T05:04:55;25;25;
84970;PMS5003;75278;51.926;4.562;2024-01-30T05:06:37;17;17;
84970;PMS5003;75278;51.926;4.562;2024-01-30T05:08:37;15;15;
84970;PMS5003;75278;51.926;4.562;2024-01-30T05:10:37;17;16;
84970;PMS5003;75278;51.926;4.562;2024-01-30T05:12:38;16;16;
84970;PMS5003;75278;51.926;4.562;2024-01-30T05:14:37;18;18;
84970;PMS5003;75278;51.926;4.562;2024-01-30T05:16:37;20;20;
84970;PMS5003;75278;51.926;4.562;2024-01-30T05:18:37;14;14;
84970;PMS5003;75278;51.926;4.562;2024-01-30T05:20:37;17;17;
84970;PMS5003;75278;51.926;4.562;2024-01-30T05:22:37;20;20;
84970;PMS5003;75278;51.926;4.562;2024-01-30T05:24:37;13;13;
84970;PMS5003;75278;51.926;4.562;2024-01-30T05:26:37;11;11;
84970;PMS5003;75278;51.926;4.562;2024-01-30T05:28:37;21;20;
84970;PMS5003;75278;51.926;4.562;2024-01-30T05:30:38;21;20;
84970;PMS5003;75278;51.926;4.562;2024-01-30T05:32:37;17;17;
84970;PMS5003;75278;51.926;4.562;2024-01-30T05:34:37;16;16;
84970;PMS5003;75278;51.926;4.562;2024-01-30T05:36:37;17;17;
84970;PMS5003;75278;51.926;4.562;2024-01-30T05:38:37;20;20;
84970;PMS5003;75278;51.926;4.562;2024-01-30T05:40:37;17;16;
84970;PMS5003;75278;51.926;4.562;2024-01-30T05:42:37;10;9;
84970;PMS5003;75278;51.926;4.562;2024-01-30T05:44:37;17;17;
84970;PMS5003;75278;51.926;4.562;2024-01-30T05:46:37;17;17;
84970;PMS5003;75278;51.926;4.562;2024-01-30T05:48:37;22;22;
84970;PMS5003;75278;51.926;4.562;2024-01-30T05:50:37;19;18;
84970;PMS5003;75278;51.926;4.562;2024-01-30T05:52:37;18;18;
84970;PMS5003;75278;51.926;4.562;2024-01-30T05:54:37;16;16;
84970;PMS5003;75278;51.926;4.562;2024-01-30T05:56:37;15;14;
84970;PMS5003;75278;51.926;4.562;2024-01-30T05:58:37;17;17;
84970;PMS5003;75278;51.926;4.562;2024-01-30T06:00:37;16;16;
84970;PMS5003;75278;51.926;4.562;2024-01-30T06:02:37;15;15;
84970;PMS5003;75278;51.926;4.562;2024-01-30T06:04:37;13;13;
84970;PMS5003;75278;51.926;4.562;2024-01-30T06:06:37;16;16;
84970;PMS5003;75278;51.926;4.562;2024-01-30T06:08:37;20;20;
84970;PMS5003;75278;51.926;4.562;2024-01-30T06:10:37;18;18;
84970;PMS5003;75278;51.926;4.562;2024-01-30T06:12:37;19;19;
84970;PMS5003;75278;51.926;4.562;2024-01-30T06:14:37;18;17;
84970;PMS5003;75278;51.926;4.562;2024-01-30T06:16:37;17;17;
84970;PMS5003;75278;51.926;4.562;2024-01-30T06:18:38;16;16;
84970;PMS5003;75278;51.926;4.562;2024-01-30T06:20:37;19;18;
84970;PMS5003;75278;51.926;4.562;2024-01-30T06:22:37;15;14;
84970;PMS5003;75278;51.926;4.562;2024-01-30T06:24:37;18;18;
84970;PMS5003;75278;51.926;4.562;2024-01-30T06:26:37;11;11;
84970;PMS5003;75278;51.926;4.562;2024-01-30T06:28:37;19;17;
84970;PMS5003;75278;51.926;4.562;2024-01-30T06:30:37;14;14;
84970;PMS5003;75278;51.926;4.562;2024-01-30T06:32:37;18;18;
84970;PMS5003;75278;51.926;4.562;2024-01-30T06:34:37;19;19;
84970;PMS5003;75278;51.926;4.562;2024-01-30T06:36:38;16;15;
84970;PMS5003;75278;51.926;4.562;2024-01-30T06:38:37;18;18;
84970;PMS5003;75278;51.926;4.562;2024-01-30T06:40:37;16;16;
84970;PMS5003;75278;51.926;4.562;2024-01-30T06:42:37;19;18;
84970;PMS5003;75278;51.926;4.562;2024-01-30T06:44:37;19;19;
84970;PMS5003;75278;51.926;4.562;2024-01-30T06:46:38;18;18;
84970;PMS5003;75278;51.926;4.562;2024-01-30T06:48:37;9;9;
84970;PMS5003;75278;51.926;4.562;2024-01-30T06:50:37;18;18;
84970;PMS5003;75278;51.926;4.562;2024-01-30T06:52:37;19;18;
84970;PMS5003;75278;51.926;4.562;2024-01-30T06:54:38;16;16;
84970;PMS5003;75278;51.926;4.562;2024-01-30T06:56:37;16;16;
84970;PMS5003;75278;51.926;4.562;2024-01-30T06:58:37;13;12;
84970;PMS5003;75278;51.926;4.562;2024-01-30T07:00:37;22;22;
84970;PMS5003;75278;51.926;4.562;2024-01-30T07:02:38;16;16;
84970;PMS5003;75278;51.926;4.562;2024-01-30T07:04:37;unavailable;unavailable;
84970;PMS5003;75278;51.926;4.562;2024-01-30T07:04:48;26;26;
84970;PMS5003;75278;51.926;4.562;2024-01-30T07:06:37;16;16;
84970;PMS5003;75278;51.926;4.562;2024-01-30T07:08:38;14;14;
84970;PMS5003;75278;51.926;4.562;2024-01-30T07:10:37;13;13;
84970;PMS5003;75278;51.926;4.562;2024-01-30T07:12:37;21;21;
84970;PMS5003;75278;51.926;4.562;2024-01-30T07:14:37;18;18;
84970;PMS5003;75278;51.926;4.562;2024-01-30T07:16:37;16;16;
84970;PMS5003;75278;51.926;4.562;2024-01-30T07:18:38;15;15;
84970;PMS5003;75278;51.926;4.562;2024-01-30T07:20:38;19;18;
84970;PMS5003;75278;51.926;4.562;2024-01-30T07:22:37;13;13;
84970;PMS5003;75278;51.926;4.562;2024-01-30T07:24:41;13;13;
84970;PMS5003;75278;51.926;4.562;2024-01-30T07:26:38;17;17;
84970;PMS5003;75278;51.926;4.562;2024-01-30T07:28:37;17;16;
84970;PMS5003;75278;51.926;4.562;2024-01-30T07:30:38;19;19;
84970;PMS5003;75278;51.926;4.562;2024-01-30T07:32:38;14;13;
84970;PMS5003;75278;51.926;4.562;2024-01-30T07:34:38;15;15;
84970;PMS5003;75278;51.926;4.562;2024-01-30T07:36:38;13;13;
84970;PMS5003;75278;51.926;4.562;2024-01-30T07:38:38;10;10;
84970;PMS5003;75278;51.926;4.562;2024-01-30T07:40:38;12;12;
84970;PMS5003;75278;51.926;4.562;2024-01-30T07:42:38;14;14;
84970;PMS5003;75278;51.926;4.562;2024-01-30T07:44:38;13;13;
84970;PMS5003;75278;51.926;4.562;2024-01-30T07:46:38;15;14;
84970;PMS5003;75278;51.926;4.562;2024-01-30T07:48:38;18;18;
84970;PMS5003;75278;51.926;4.562;2024-01-30T07:50:38;12;12;
84970;PMS5003;75278;51.926;4.562;2024-01-30T07:52:38;17;17;
84970;PMS5003;75278;51.926;4.562;2024-01-30T07:56:38;16;16;
84970;PMS5003;75278;51.926;4.562;2024-01-30T07:58:37;16;15;
84970;PMS5003;75278;51.926;4.562;2024-01-30T08:00:38;14;14;
84970;PMS5003;75278;51.926;4.562;2024-01-30T08:02:38;13;13;
84970;PMS5003;75278;51.926;4.562;2024-01-30T08:04:38;14;13;
84970;PMS5003;75278;51.926;4.562;2024-01-30T08:06:38;12;12;
84970;PMS5003;75278;51.926;4.562;2024-01-30T08:08:38;17;16;
84970;PMS5003;75278;51.926;4.562;2024-01-30T08:10:37;15;15;
84970;PMS5003;75278;51.926;4.562;2024-01-30T08:12:38;18;17;
84970;PMS5003;75278;51.926;4.562;2024-01-30T08:14:38;13;13;
84970;PMS5003;75278;51.926;4.562;2024-01-30T08:16:38;14;14;
84970;PMS5003;75278;51.926;4.562;2024-01-30T08:18:38;19;19;
84970;PMS5003;75278;51.926;4.562;2024-01-30T08:20:38;13;13;
84970;PMS5003;75278;51.926;4.562;2024-01-30T08:22:38;15;15;
84970;PMS5003;75278;51.926;4.562;2024-01-30T08:24:38;17;16;
84970;PMS5003;75278;51.926;4.562;2024-01-30T08:26:38;14;14;
84970;PMS5003;75278;51.926;4.562;2024-01-30T08:28:38;19;18;
84970;PMS5003;75278;51.926;4.562;2024-01-30T08:30:38;17;17;
84970;PMS5003;75278;51.926;4.562;2024-01-30T08:32:38;13;13;
84970;PMS5003;75278;51.926;4.562;2024-01-30T08:34:38;16;16;
84970;PMS5003;75278;51.926;4.562;2024-01-30T08:36:38;12;12;
84970;PMS5003;75278;51.926;4.562;2024-01-30T08:38:38;16;16;
84970;PMS5003;75278;51.926;4.562;2024-01-30T08:40:38;16;16;
84970;PMS5003;75278;51.926;4.562;2024-01-30T08:42:38;15;15;
84970;PMS5003;75278;51.926;4.562;2024-01-30T08:44:38;16;15;
84970;PMS5003;75278;51.926;4.562;2024-01-30T08:46:38;14;14;
84970;PMS5003;75278;51.926;4.562;2024-01-30T08:48:38;17;17;
84970;PMS5003;75278;51.926;4.562;2024-01-30T08:50:38;17;17;
84970;PMS5003;75278;51.926;4.562;2024-01-30T08:52:38;16;15;
84970;PMS5003;75278;51.926;4.562;2024-01-30T08:54:38;18;17;
84970;PMS5003;75278;51.926;4.562;2024-01-30T08:56:38;17;15;
84970;PMS5003;75278;51.926;4.562;2024-01-30T08:58:38;18;18;
84970;PMS5003;75278;51.926;4.562;2024-01-30T09:00:38;14;14;
84970;PMS5003;75278;51.926;4.562;2024-01-30T09:02:38;16;16;
84970;PMS5003;75278;51.926;4.562;2024-01-30T09:04:38;unavailable;unavailable;
84970;PMS5003;75278;51.926;4.562;2024-01-30T09:06:38;17;16;
84970;PMS5003;75278;51.926;4.562;2024-01-30T09:08:38;3;2;
84970;PMS5003;75278;51.926;4.562;2024-01-30T09:10:38;15;15;
84970;PMS5003;75278;51.926;4.562;2024-01-30T09:12:38;11;11;
84970;PMS5003;75278;51.926;4.562;2024-01-30T09:14:38;19;18;
84970;PMS5003;75278;51.926;4.562;2024-01-30T09:16:38;15;15;
84970;PMS5003;75278;51.926;4.562;2024-01-30T09:18:38;16;15;
84970;PMS5003;75278;51.926;4.562;2024-01-30T09:20:38;17;16;
84970;PMS5003;75278;51.926;4.562;2024-01-30T09:22:38;16;16;
84970;PMS5003;75278;51.926;4.562;2024-01-30T09:24:38;14;14;
84970;PMS5003;75278;51.926;4.562;2024-01-30T09:26:38;11;11;
84970;PMS5003;75278;51.926;4.562;2024-01-30T09:28:38;14;14;
84970;PMS5003;75278;51.926;4.562;2024-01-30T09:30:38;17;17;
84970;PMS5003;75278;51.926;4.562;2024-01-30T09:32:39;14;14;
84970;PMS5003;75278;51.926;4.562;2024-01-30T09:34:38;17;17;
84970;PMS5003;75278;51.926;4.562;2024-01-30T09:36:38;16;15;
84970;PMS5003;75278;51.926;4.562;2024-01-30T09:38:38;11;11;
84970;PMS5003;75278;51.926;4.562;2024-01-30T09:40:38;15;13;
84970;PMS5003;75278;51.926;4.562;2024-01-30T09:42:38;13;13;
84970;PMS5003;75278;51.926;4.562;2024-01-30T09:44:38;13;13;
84970;PMS5003;75278;51.926;4.562;2024-01-30T09:46:38;9;9;
84970;PMS5003;75278;51.926;4.562;2024-01-30T09:48:38;13;13;
84970;PMS5003;75278;51.926;4.562;2024-01-30T09:50:38;14;14;
84970;PMS5003;75278;51.926;4.562;2024-01-30T09:52:38;17;16;
84970;PMS5003;75278;51.926;4.562;2024-01-30T09:54:38;13;13;
84970;PMS5003;75278;51.926;4.562;2024-01-30T09:56:38;15;15;
84970;PMS5003;75278;51.926;4.562;2024-01-30T09:58:38;16;16;
84970;PMS5003;75278;51.926;4.562;2024-01-30T10:00:38;15;15;
84970;PMS5003;75278;51.926;4.562;2024-01-30T10:02:38;12;12;
84970;PMS5003;75278;51.926;4.562;2024-01-30T10:04:38;13;13;
84970;PMS5003;75278;51.926;4.562;2024-01-30T10:06:38;14;14;
84970;PMS5003;75278;51.926;4.562;2024-01-30T10:08:38;10;10;
84970;PMS5003;75278;51.926;4.562;2024-01-30T10:10:38;10;10;
84970;PMS5003;75278;51.926;4.562;2024-01-30T10:12:38;11;11;
84970;PMS5003;75278;51.926;4.562;2024-01-30T10:14:38;10;10;
84970;PMS5003;75278;51.926;4.562;2024-01-30T10:16:38;10;9;
84970;PMS5003;75278;51.926;4.562;2024-01-30T10:18:38;10;10;
84970;PMS5003;75278;51.926;4.562;2024-01-30T10:20:38;10;10;
84970;PMS5003;75278;51.926;4.562;2024-01-30T10:22:38;7;7;
84970;PMS5003;75278;51.926;4.562;2024-01-30T10:24:38;10;10;
84970;PMS5003;75278;51.926;4.562;2024-01-30T10:26:38;8;8;
84970;PMS5003;75278;51.926;4.562;2024-01-30T10:28:38;5;5;
84970;PMS5003;75278;51.926;4.562;2024-01-30T10:30:38;3;3;
84970;PMS5003;75278;51.926;4.562;2024-01-30T10:32:38;4;4;
84970;PMS5003;75278;51.926;4.562;2024-01-30T10:34:38;5;4;
84970;PMS5003;75278;51.926;4.562;2024-01-30T10:36:39;2;2;
84970;PMS5003;75278;51.926;4.562;2024-01-30T10:38:38;4;4;
84970;PMS5003;75278;51.926;4.562;2024-01-30T10:40:38;2;2;
84970;PMS5003;75278;51.926;4.562;2024-01-30T10:42:38;4;4;
84970;PMS5003;75278;51.926;4.562;2024-01-30T10:44:41;3;3;
84970;PMS5003;75278;51.926;4.562;2024-01-30T10:46:38;4;4;
84970;PMS5003;75278;51.926;4.562;2024-01-30T10:48:40;7;6;
84970;PMS5003;75278;51.926;4.562;2024-01-30T10:50:38;5;5;
84970;PMS5003;75278;51.926;4.562;2024-01-30T10:52:39;3;3;
84970;PMS5003;75278;51.926;4.562;2024-01-30T10:54:38;4;4;
84970;PMS5003;75278;51.926;4.562;2024-01-30T10:56:38;4;4;
84970;PMS5003;75278;51.926;4.562;2024-01-30T10:58:38;4;4;
84970;PMS5003;75278;51.926;4.562;2024-01-30T11:00:38;3;3;
84970;PMS5003;75278;51.926;4.562;2024-01-30T11:02:38;2;1;
84970;PMS5003;75278;51.926;4.562;2024-01-30T11:04:38;unavailable;unavailable;
84970;PMS5003;75278;51.926;4.562;2024-01-30T11:06:40;0;0;
84970;PMS5003;75278;51.926;4.562;2024-01-30T11:08:38;2;2;
84970;PMS5003;75278;51.926;4.562;2024-01-30T11:10:44;2;2;
84970;PMS5003;75278;51.926;4.562;2024-01-30T11:12:38;1;1;
84970;PMS5003;75278;51.926;4.562;2024-01-30T11:14:38;2;2;
84970;PMS5003;75278;51.926;4.562;2024-01-30T11:16:38;2;2;
84970;PMS5003;75278;51.926;4.562;2024-01-30T11:18:38;1;1;
84970;PMS5003;75278;51.926;4.562;2024-01-30T11:20:38;1;1;
84970;PMS5003;75278;51.926;4.562;2024-01-30T11:22:38;3;3;
84970;PMS5003;75278;51.926;4.562;2024-01-30T11:24:39;1;1;
84970;PMS5003;75278;51.926;4.562;2024-01-30T11:26:38;1;1;
84970;PMS5003;75278;51.926;4.562;2024-01-30T11:28:38;1;1;
84970;PMS5003;75278;51.926;4.562;2024-01-30T11:30:38;2;2;
84970;PMS5003;75278;51.926;4.562;2024-01-30T11:32:38;1;1;
84970;PMS5003;75278;51.926;4.562;2024-01-30T11:34:39;0;0;
84970;PMS5003;75278;51.926;4.562;2024-01-30T11:36:38;1;1;
84970;PMS5003;75278;51.926;4.562;2024-01-30T11:38:38;0;0;
84970;PMS5003;75278;51.926;4.562;2024-01-30T11:40:38;1;1;
84970;PMS5003;75278;51.926;4.562;2024-01-30T11:42:38;1;1;
84970;PMS5003;75278;51.926;4.562;2024-01-30T11:44:38;0;0;
84970;PMS5003;75278;51.926;4.562;2024-01-30T11:46:38;0;0;
84970;PMS5003;75278;51.926;4.562;2024-01-30T11:48:38;0;0;
84970;PMS5003;75278;51.926;4.562;2024-01-30T11:50:38;0;0;
84970;PMS5003;75278;51.926;4.562;2024-01-30T11:52:38;1;1;
84970;PMS5003;75278;51.926;4.562;2024-01-30T11:54:39;0;0;
84970;PMS5003;75278;51.926;4.562;2024-01-30T11:56:38;0;0;
84970;PMS5003;75278;51.926;4.562;2024-01-30T11:58:38;0;0;
84970;PMS5003;75278;51.926;4.562;2024-01-30T12:00:38;0;0;
84970;PMS5003;75278;51.926;4.562;2024-01-30T12:02:38;0;0;
84970;PMS5003;75278;51.926;4.562;2024-01-30T12:04:38;0;0;
84970;PMS5003;75278;51.926;4.562;2024-01-30T12:06:38;1;0;
84970;PMS5003;75278;51.926;4.562;2024-01-30T12:07:51;0;0;
84970;PMS5003;75278;51.926;4.562;2024-01-30T12:08:56;0;0;
84970;PMS5003;75278;51.926;4.562;2024-01-30T12:10:21;0;0;
84970;PMS5003;75278;51.926;4.562;2024-01-30T12:11:50;0;0;
84970;PMS5003;75278;51.926;4.562;2024-01-30T12:13:50;0;0;
84970;PMS5003;75278;51.926;4.562;2024-01-30T12:15:50;0;0;
84970;PMS5003;75278;51.926;4.562;2024-01-30T12:17:50;0;0;
84970;PMS5003;75278;51.926;4.562;2024-01-30T12:19:50;0;0;
84970;PMS5003;75278;51.926;4.562;2024-01-30T12:21:53;0;0;
84970;PMS5003;75278;51.926;4.562;2024-01-30T12:23:50;0;0;
84970;PMS5003;75278;51.926;4.562;2024-01-30T12:25:50;0;0;
84970;PMS5003;75278;51.926;4.562;2024-01-30T12:27:50;0;0;
84970;PMS5003;75278;51.926;4.562;2024-01-30T12:29:55;1;1;
84970;PMS5003;75278;51.926;4.562;2024-01-30T12:31:52;0;0;
84970;PMS5003;75278;51.926;4.562;2024-01-30T12:33:50;0;0;
84970;PMS5003;75278;51.926;4.562;2024-01-30T12:35:50;0;0;
84970;PMS5003;75278;51.926;4.562;2024-01-30T12:37:50;0;0;
84970;PMS5003;75278;51.926;4.562;2024-01-30T12:39:51;0;0;
84970;PMS5003;75278;51.926;4.562;2024-01-30T12:41:51;0;0;
84970;PMS5003;75278;51.926;4.562;2024-01-30T12:43:50;0;0;
84970;PMS5003;75278;51.926;4.562;2024-01-30T12:45:50;1;1;
84970;PMS5003;75278;51.926;4.562;2024-01-30T12:47:50;5;5;
84970;PMS5003;75278;51.926;4.562;2024-01-30T12:49:50;0;0;
84970;PMS5003;75278;51.926;4.562;2024-01-30T12:51:50;1;1;
84970;PMS5003;75278;51.926;4.562;2024-01-30T12:53:50;0;0;
84970;PMS5003;75278;51.926;4.562;2024-01-30T12:55:50;2;1;
84970;PMS5003;75278;51.926;4.562;2024-01-30T12:57:50;0;0;
84970;PMS5003;75278;51.926;4.562;2024-01-30T12:59:50;0;0;
84970;PMS5003;75278;51.926;4.562;2024-01-30T13:01:50;0;0;
84970;PMS5003;75278;51.926;4.562;2024-01-30T13:03:50;0;0;
84970;PMS5003;75278;51.926;4.562;2024-01-30T13:05:50;1;1;
84970;PMS5003;75278;51.926;4.562;2024-01-30T13:07:50;2;1;
84970;PMS5003;75278;51.926;4.562;2024-01-30T13:09:50;1;1;
84970;PMS5003;75278;51.926;4.562;2024-01-30T13:11:50;1;1;